Time;durP1;ratioP1;P1;durP2;ratioP2;P2;SDS_P1;SDS_P2;PMS_P1;PMS_P2;Temp;Humidity;BMP_temperature;BMP_pressure;BME280_temperature;BME280_humidity;BME280_pressure;Samples;Min_cycle;Max_cycle;Signal;HPM_P1;HPM_P2
2022/09/09 00:01:05;;;;;;;16.73;2.15;;;19.00;99.90;;;;;;4916931;29;20536;-83
2022/09/09 00:03:53;;;;;;;20.60;1.90;;;18.90;99.90;;;;;;4917066;29;20039;-83
2022/09/09 00:06:28;;;;;;;8.38;1.92;;;18.90;99.90;;;;;;4916813;29;20032;-83
2022/09/09 00:09:07;;;;;;;12.30;2.05;;;18.90;99.90;;;;;;4916827;29;20102;-82
2022/09/09 00:11:52;;;;;;;19.50;2.58;;;18.80;99.90;;;;;;4911627;29;20051;-83
2022/09/09 00:14:44;;;;;;;14.15;2.25;;;18.90;99.90;;;;;;4899375;29;20028;-83
2022/09/09 00:17:25;;;;;;;14.65;1.88;;;18.90;99.90;;;;;;4903968;29;20032;-83
2022/09/09 00:20:00;;;;;;;20.15;2.47;;;18.80;99.90;;;;;;4915144;29;20028;-83
2022/09/09 00:22:27;;;;;;;;;;;18.80;99.90;;;;;;4917291;29;20051;-83
2022/09/09 00:24:55;;;;;;;12.30;2.17;;;18.80;99.90;;;;;;4916496;29;19967;-83
2022/09/09 00:27:38;;;;;;;15.95;1.92;;;18.70;99.90;;;;;;4915863;29;20067;-82
2022/09/09 00:30:18;;;;;;;16.58;2.65;;;18.70;99.90;;;;;;4916233;29;20147;-83
2022/09/09 00:32:45;;;;;;;20.10;2.35;;;18.70;99.90;;;;;;4899226;29;20039;-83
2022/09/09 00:35:10;;;;;;;13.85;2.25;;;18.70;99.90;;;;;;4916182;29;20158;-83
2022/09/09 00:37:38;;;;;;;13.85;2.45;;;18.60;99.90;;;;;;4915959;29;20485;-82
2022/09/09 00:40:18;;;;;;;19.30;2.35;;;18.70;99.90;;;;;;4915898;29;20577;-82
2022/09/09 00:42:45;;;;;;;12.35;2.15;;;18.70;99.90;;;;;;4910799;29;20042;-82
2022/09/09 00:45:12;;;;;;;17.17;2.65;;;18.70;99.90;;;;;;4915899;29;20039;-83
2022/09/09 00:47:44;;;;;;;13.85;2.50;;;18.70;99.90;;;;;;4916141;29;20024;-82
2022/09/09 00:50:43;;;;;;;17.10;2.78;;;18.70;99.90;;;;;;4898817;29;20025;-82
2022/09/09 00:53:33;;;;;;;18.85;2.42;;;18.60;99.90;;;;;;4915912;29;20039;-82
2022/09/09 00:56:21;;;;;;;16.83;2.17;;;18.70;99.90;;;;;;4911266;29;20079;-83
2022/09/09 00:59:36;;;;;;;14.93;2.13;;;18.70;99.90;;;;;;4915688;29;20099;-82
2022/09/09 01:02:04;;;;;;;14.13;2.67;;;18.70;99.90;;;;;;4905261;29;20071;-83
2022/09/09 01:04:34;;;;;;;14.82;2.47;;;18.80;99.90;;;;;;4915795;29;20173;-82
2022/09/09 01:07:17;;;;;;;12.07;2.15;;;18.80;99.90;;;;;;4915547;29;20111;-83
2022/09/09 01:09:57;;;;;;;12.43;2.40;;;18.80;99.90;;;;;;4909509;29;20039;-82
2022/09/09 01:12:43;;;;;;;17.90;3.30;;;18.80;99.90;;;;;;4915197;29;20058;-82
2022/09/09 01:15:17;;;;;;;15.05;2.20;;;18.80;99.90;;;;;;4915612;29;20028;-82
2022/09/09 01:17:50;;;;;;;10.65;1.67;;;18.80;99.90;;;;;;4915369;29;20054;-82
2022/09/09 01:20:27;;;;;;;12.13;1.90;;;18.80;99.90;;;;;;4915401;29;20033;-81
2022/09/09 01:23:02;;;;;;;15.98;2.13;;;18.80;99.90;;;;;;4915227;29;20519;-82
2022/09/09 01:25:43;;;;;;;11.25;1.88;;;18.80;99.90;;;;;;4892819;29;20044;-82
2022/09/09 01:28:19;;;;;;;11.95;1.95;;;18.90;99.90;;;;;;4915196;29;20599;-82
2022/09/09 01:30:44;;;;;;;11.68;2.17;;;18.90;99.90;;;;;;4898272;29;20068;-82
2022/09/09 01:33:15;;;;;;;14.43;2.38;;;18.80;99.90;;;;;;4915056;29;20091;-82
2022/09/09 01:35:50;;;;;;;15.98;2.03;;;18.90;99.90;;;;;;4915622;29;20520;-82
2022/09/09 01:38:18;;;;;;;12.10;1.98;;;18.90;99.90;;;;;;4898052;29;20055;-82
2022/09/09 01:40:44;;;;;;;12.88;2.30;;;18.90;99.90;;;;;;4914587;29;20032;-82
2022/09/09 01:43:10;;;;;;;13.02;1.98;;;18.90;99.90;;;;;;4914761;29;20028;-81
2022/09/09 01:45:36;;;;;;;20.83;2.28;;;18.80;99.90;;;;;;4915158;29;20408;-81
2022/09/09 01:48:02;;;;;;;16.35;2.47;;;18.70;99.90;;;;;;4915075;29;20429;-81
2022/09/09 01:50:29;;;;;;;14.70;2.10;;;18.70;99.90;;;;;;4914845;29;20452;-81
2022/09/09 01:52:58;;;;;;;11.80;2.15;;;18.60;99.90;;;;;;4914954;29;20028;-82
2022/09/09 01:55:41;;;;;;;17.70;2.25;;;18.50;99.90;;;;;;4897302;29;20020;-81
2022/09/09 01:58:27;;;;;;;13.93;2.28;;;18.50;99.90;;;;;;4892258;29;20367;-81
2022/09/09 02:01:19;;;;;;;12.70;1.92;;;18.50;99.90;;;;;;4914443;29;20031;-81
2022/09/09 02:03:51;;;;;;;14.82;2.05;;;18.50;99.90;;;;;;4914349;29;20119;-82
2022/09/09 02:06:35;;;;;;;20.77;2.47;;;18.50;99.90;;;;;;4914597;29;20061;-82
2022/09/09 02:09:04;;;;;;;15.55;1.98;;;18.50;99.90;;;;;;4914517;29;20095;-82
2022/09/09 02:11:31;;;;;;;13.23;2.08;;;18.60;99.90;;;;;;4914735;29;20048;-82
2022/09/09 02:14:09;;;;;;;18.83;2.10;;;18.60;99.90;;;;;;4913576;29;20386;-81
2022/09/09 02:16:52;;;;;;;12.88;1.83;;;18.60;99.90;;;;;;4897037;29;20067;-81
2022/09/09 02:19:31;;;;;;;19.88;2.80;;;18.60;99.90;;;;;;4914476;29;20064;-82
2022/09/09 02:22:00;;;;;;;14.80;2.63;;;18.60;99.90;;;;;;4894301;29;20079;-81
2022/09/09 02:24:28;;;;;;;17.73;2.17;;;18.60;99.90;;;;;;4913610;29;20080;-81
2022/09/09 02:26:57;;;;;;;17.02;1.80;;;18.60;99.90;;;;;;4913842;29;20071;-81
2022/09/09 02:29:47;;;;;;;14.18;1.75;;;18.60;99.90;;;;;;4913925;29;20056;-81
2022/09/09 02:32:17;;;;;;;12.45;2.60;;;18.60;99.90;;;;;;4909700;29;20513;-81
2022/09/09 02:34:53;;;;;;;13.50;2.35;;;18.80;99.90;;;;;;4914184;29;20048;-81
2022/09/09 02:37:22;;;;;;;10.93;2.05;;;18.80;99.90;;;;;;4913837;29;20024;-81
2022/09/09 02:39:48;;;;;;;10.73;1.77;;;18.80;99.90;;;;;;4913901;29;20393;-81
2022/09/09 02:42:14;;;;;;;25.83;2.67;;;18.80;99.90;;;;;;4893741;29;20115;-82
2022/09/09 02:44:41;;;;;;;20.80;3.53;;;18.80;99.90;;;;;;4913715;29;20272;-81
2022/09/09 02:47:15;;;;;;;14.95;2.65;;;18.80;99.90;;;;;;4913943;29;20111;-81
2022/09/09 02:49:49;;;;;;;16.35;2.30;;;18.80;99.90;;;;;;4913887;29;20543;-81
2022/09/09 02:52:18;;;;;;;17.95;1.83;;;18.80;99.90;;;;;;4913758;29;20060;-81
2022/09/09 02:54:45;;;;;;;18.00;2.35;;;18.80;99.90;;;;;;4914357;29;20521;-81
2022/09/09 02:57:12;;;;;;;13.48;2.70;;;18.70;99.90;;;;;;4913253;29;20028;-81
2022/09/09 02:59:39;;;;;;;12.80;2.08;;;18.70;99.90;;;;;;4913825;29;20024;-81
2022/09/09 03:02:05;;;;;;;10.80;2.13;;;18.70;99.90;;;;;;4913391;29;20028;-81
2022/09/09 03:04:31;;;;;;;16.58;2.20;;;18.60;99.90;;;;;;4913530;29;20103;-81
2022/09/09 03:06:58;;;;;;;15.98;2.17;;;18.60;99.90;;;;;;4913478;29;20059;-81
2022/09/09 03:09:24;;;;;;;23.27;2.95;;;18.60;99.90;;;;;;4913676;29;20024;-81
2022/09/09 03:11:50;;;;;;;26.80;3.60;;;18.60;99.90;;;;;;4913593;29;20056;-81
2022/09/09 03:14:16;;;;;;;13.32;2.20;;;18.60;99.90;;;;;;4894297;29;20533;-81
2022/09/09 03:16:42;;;;;;;17.80;2.72;;;18.60;99.90;;;;;;4913676;29;20032;-81
2022/09/09 03:19:08;;;;;;;24.02;3.08;;;18.50;99.90;;;;;;4913276;29;20103;-81
2022/09/09 03:21:34;;;;;;;22.08;3.20;;;18.50;99.90;;;;;;4913266;29;20171;-82
2022/09/09 03:24:00;;;;;;;15.18;2.60;;;18.40;99.90;;;;;;4912989;29;20396;-82
2022/09/09 03:26:25;;;;;;;14.73;2.35;;;18.40;99.90;;;;;;4912797;29;20044;-81
2022/09/09 03:28:52;;;;;;;11.90;2.65;;;18.40;99.90;;;;;;4913361;29;20044;-81
2022/09/09 03:31:19;;;;;;;11.13;2.15;;;18.40;99.90;;;;;;4913274;29;20040;-81
2022/09/09 03:33:44;;;;;;;15.85;3.08;;;18.40;99.90;;;;;;4913463;29;20461;-81
2022/09/09 03:36:10;;;;;;;13.25;2.17;;;18.40;99.90;;;;;;4894370;29;20154;-81
2022/09/09 03:38:36;;;;;;;12.05;2.20;;;18.40;99.90;;;;;;4913162;29;20017;-81
2022/09/09 03:41:02;;;;;;;13.75;2.35;;;18.40;99.90;;;;;;4892672;29;20060;-81
2022/09/09 03:43:29;;;;;;;16.45;2.38;;;18.40;99.90;;;;;;4913003;29;20118;-81
2022/09/09 03:45:56;;;;;;;14.93;2.42;;;18.40;99.90;;;;;;4913168;29;20036;-81
2022/09/09 03:48:23;;;;;;;18.75;2.50;;;18.50;99.90;;;;;;4908625;29;20385;-81
2022/09/09 03:50:51;;;;;;;15.80;2.22;;;18.50;99.90;;;;;;4913314;29;20044;-81
2022/09/09 03:53:19;;;;;;;13.82;2.03;;;18.50;99.90;;;;;;4913286;29;20120;-81
2022/09/09 03:55:49;;;;;;;14.07;2.47;;;18.50;99.90;;;;;;4912813;29;20421;-81
2022/09/09 03:58:18;;;;;;;17.95;2.45;;;18.50;99.90;;;;;;4907417;29;20405;-81
2022/09/09 04:00:52;;;;;;;12.77;2.10;;;18.60;99.90;;;;;;4912936;29;20371;-81
2022/09/09 04:03:18;;;;;;;16.33;2.63;;;18.60;99.90;;;;;;4912779;29;20525;-81
2022/09/09 04:05:44;;;;;;;14.77;2.20;;;18.50;99.90;;;;;;4912703;29;20031;-81
2022/09/09 04:08:09;;;;;;;19.17;3.35;;;18.50;99.90;;;;;;4912934;29;20039;-81
2022/09/09 04:10:38;;;;;;;13.27;2.00;;;18.50;99.90;;;;;;4912683;29;20031;-81
2022/09/09 04:13:04;;;;;;;22.60;2.97;;;18.50;99.90;;;;;;4913090;29;20549;-81
2022/09/09 04:15:31;;;;;;;14.38;2.38;;;18.40;99.90;;;;;;4912784;29;20039;-81
2022/09/09 04:17:57;;;;;;;13.13;2.15;;;18.40;99.90;;;;;;4913130;29;20059;-81
2022/09/09 04:20:23;;;;;;;15.13;2.50;;;18.50;99.90;;;;;;4912705;29;20028;-81
2022/09/09 04:22:48;;;;;;;11.90;2.40;;;18.40;99.90;;;;;;4912883;29;20028;-82
2022/09/09 04:25:14;;;;;;;11.88;1.52;;;18.50;99.90;;;;;;4912462;29;20087;-81
2022/09/09 04:27:41;;;;;;;10.60;1.83;;;18.50;99.90;;;;;;4912569;29;20493;-81
2022/09/09 04:30:07;;;;;;;11.70;2.25;;;18.50;99.90;;;;;;4912648;29;20052;-81
2022/09/09 04:32:36;;;;;;;12.52;3.05;;;18.50;99.90;;;;;;4912619;29;20028;-81
2022/09/09 04:35:03;;;;;;;24.25;2.35;;;18.50;99.90;;;;;;4913087;29;20103;-81
2022/09/09 04:37:28;;;;;;;17.15;3.05;;;18.50;99.90;;;;;;4913692;29;20047;-81
2022/09/09 04:39:54;;;;;;;17.17;2.53;;;18.50;99.90;;;;;;4916195;29;20028;-81
2022/09/09 04:42:19;;;;;;;13.55;2.38;;;18.50;99.90;;;;;;4915733;29;20052;-81
2022/09/09 04:44:45;;;;;;;11.55;1.90;;;18.50;99.90;;;;;;4915781;29;20047;-81
2022/09/09 04:47:11;;;;;;;15.95;2.28;;;18.50;99.90;;;;;;4916360;29;20485;-81
2022/09/09 04:49:38;;;;;;;19.13;2.90;;;18.50;99.90;;;;;;4915943;29;20032;-81
2022/09/09 04:52:04;;;;;;;14.10;2.30;;;18.40;99.90;;;;;;4915872;29;20457;-81
2022/09/09 04:54:29;;;;;;;18.95;2.78;;;18.40;99.90;;;;;;4915986;29;20096;-81
2022/09/09 04:56:55;;;;;;;19.85;2.63;;;18.40;99.90;;;;;;4915469;29;20035;-81
2022/09/09 04:59:21;;;;;;;20.38;3.38;;;18.40;99.90;;;;;;4894200;29;20482;-81
2022/09/09 05:01:48;;;;;;;24.75;3.53;;;18.40;99.90;;;;;;4915944;29;20115;-81
2022/09/09 05:04:15;;;;;;;22.73;2.65;;;18.40;99.90;;;;;;4915403;29;20164;-81
2022/09/09 05:06:42;;;;;;;17.85;3.55;;;18.30;99.90;;;;;;4915745;29;20481;-81
2022/09/09 05:09:08;;;;;;;9.88;1.85;;;18.30;99.90;;;;;;4901788;29;20039;-82
2022/09/09 05:11:38;;;;;;;16.67;2.50;;;18.30;99.90;;;;;;4915208;29;20020;-81
2022/09/09 05:14:04;;;;;;;17.50;2.63;;;18.30;99.90;;;;;;4898517;29;20068;-81
2022/09/09 05:16:30;;;;;;;15.57;2.58;;;18.20;99.90;;;;;;4915602;29;20493;-81
2022/09/09 05:18:56;;;;;;;14.82;2.60;;;18.20;99.90;;;;;;4915787;29;20389;-84
2022/09/09 05:21:24;;;;;;;16.88;3.00;;;18.20;99.90;;;;;;4915554;29;20024;-84
2022/09/09 05:23:51;;;;;;;15.32;2.67;;;18.20;99.90;;;;;;4915614;29;20338;-84
2022/09/09 05:26:19;;;;;;;19.48;3.92;;;18.20;99.90;;;;;;4914797;29;20596;-83
2022/09/09 05:28:46;;;;;;;13.27;2.13;;;18.20;99.90;;;;;;4914995;29;20078;-84
2022/09/09 05:31:12;;;;;;;18.92;2.90;;;18.20;99.90;;;;;;4895609;29;20028;-84
2022/09/09 05:33:43;;;;;;;18.70;3.40;;;18.30;99.90;;;;;;4915342;29;20031;-84
2022/09/09 05:36:13;;;;;;;20.10;2.78;;;18.20;99.90;;;;;;4915268;29;20162;-84
2022/09/09 05:38:39;;;;;;;15.52;2.33;;;18.20;99.90;;;;;;4898303;29;20123;-84
2022/09/09 05:41:05;;;;;;;20.85;3.17;;;18.20;99.90;;;;;;4915113;29;20036;-83
2022/09/09 05:43:32;;;;;;;17.02;3.13;;;18.20;99.90;;;;;;4914919;29;20443;-84
2022/09/09 05:46:02;;;;;;;16.92;2.60;;;18.20;99.90;;;;;;4915205;29;20036;-88
2022/09/09 05:48:32;;;;;;;13.52;2.40;;;18.20;99.90;;;;;;4914223;29;20039;-82
2022/09/09 05:50:59;;;;;;;14.10;2.60;;;18.20;99.90;;;;;;4914511;29;20020;-80
2022/09/09 05:53:25;;;;;;;16.27;2.72;;;18.20;99.90;;;;;;4906601;29;20581;-80
2022/09/09 05:55:58;;;;;;;17.70;2.80;;;18.30;99.90;;;;;;4899628;29;20497;-79
2022/09/09 05:58:24;;;;;;;22.60;3.10;;;18.30;99.90;;;;;;4908212;29;20036;-79
2022/09/09 06:00:50;;;;;;;23.20;3.78;;;18.30;99.90;;;;;;4910882;29;20111;-79
2022/09/09 06:03:16;;;;;;;21.50;2.67;;;18.30;99.90;;;;;;4913923;29;20115;-80
2022/09/09 06:05:42;;;;;;;14.35;2.22;;;18.40;99.90;;;;;;4914172;29;20042;-79
2022/09/09 06:08:08;;;;;;;17.83;2.78;;;18.50;99.90;;;;;;4913945;29;20016;-80
2022/09/09 06:10:34;;;;;;;23.77;3.28;;;18.50;99.90;;;;;;4914025;29;20382;-77
2022/09/09 06:13:00;;;;;;;19.80;2.88;;;18.50;99.90;;;;;;4914243;29;20013;-78
2022/09/09 06:15:26;;;;;;;20.50;3.45;;;18.50;99.90;;;;;;4914452;29;20136;-78
2022/09/09 06:17:55;;;;;;;16.10;2.70;;;18.50;99.90;;;;;;4908614;29;20027;-77
2022/09/09 06:20:22;;;;;;;18.80;3.47;;;18.50;99.90;;;;;;4913651;29;20250;-80
2022/09/09 06:22:48;;;;;;;13.95;2.95;;;18.50;99.90;;;;;;4913230;29;20020;-78
2022/09/09 06:25:14;;;;;;;22.40;2.83;;;18.60;99.90;;;;;;4913861;29;20032;-77
2022/09/09 06:27:41;;;;;;;9.02;1.85;;;18.60;99.90;;;;;;4913762;29;20536;-77
2022/09/09 06:30:08;;;;;;;16.45;2.25;;;18.60;99.90;;;;;;4913200;29;20040;-77
2022/09/09 06:32:34;;;;;;;25.08;2.45;;;18.60;99.90;;;;;;4907379;29;20453;-77
2022/09/09 06:35:01;;;;;;;17.13;2.67;;;18.70;99.90;;;;;;4914082;29;20020;-77
2022/09/09 06:37:27;;;;;;;18.00;2.90;;;18.80;99.90;;;;;;4910163;29;20032;-77
2022/09/09 06:39:54;;;;;;;19.02;3.08;;;18.90;99.90;;;;;;4912980;29;20016;-78
2022/09/09 06:42:20;;;;;;;22.08;2.40;;;19.00;99.90;;;;;;4913122;29;20498;-77
2022/09/09 06:44:45;;;;;;;15.80;2.65;;;19.10;99.90;;;;;;4913584;29;20036;-82
2022/09/09 06:47:11;;;;;;;15.82;2.95;;;19.30;99.90;;;;;;4911808;29;20111;-81
2022/09/09 06:49:37;;;;;;;16.25;2.53;;;19.30;99.90;;;;;;4912593;29;20029;-80
2022/09/09 06:52:02;;;;;;;14.65;3.33;;;19.40;99.90;;;;;;4913661;29;20024;-79
2022/09/09 06:54:28;;;;;;;15.63;2.95;;;19.30;99.90;;;;;;4890759;29;20119;-78
2022/09/09 06:56:54;;;;;;;21.27;2.90;;;19.30;99.90;;;;;;4911671;29;20024;-78
2022/09/09 06:59:19;;;;;;;17.15;2.72;;;19.20;99.90;;;;;;4907257;29;20075;-78
2022/09/09 07:01:46;;;;;;;20.73;3.03;;;19.20;99.90;;;;;;4906179;29;20057;-78
2022/09/09 07:04:13;;;;;;;12.55;2.40;;;19.10;99.90;;;;;;4907747;29;20030;-78
2022/09/09 07:06:45;;;;;;;19.67;3.88;;;19.10;99.90;;;;;;4905494;29;20037;-83
2022/09/09 07:09:13;;;;;;;17.08;2.95;;;19.10;99.90;;;;;;4907344;29;20031;-83
2022/09/09 07:11:41;;;;;;;18.45;2.58;;;19.10;99.90;;;;;;4908120;29;20111;-83
2022/09/09 07:14:07;;;;;;;12.75;2.70;;;19.00;99.90;;;;;;4903626;29;20116;-83
2022/09/09 07:16:36;;;;;;;23.77;3.90;;;19.10;99.90;;;;;;4900680;29;20029;-83
2022/09/09 07:19:02;;;;;;;13.00;3.25;;;19.20;99.90;;;;;;4906985;29;20765;-82
2022/09/09 07:21:30;;;;;;;16.13;3.00;;;19.20;99.90;;;;;;4910671;29;20035;-84
2022/09/09 07:23:55;;;;;;;16.48;2.58;;;19.20;99.90;;;;;;4911981;29;20040;-83
2022/09/09 07:26:25;;;;;;;18.65;3.00;;;19.20;99.90;;;;;;4911878;29;20050;-83
2022/09/09 07:28:50;;;;;;;15.52;2.97;;;19.20;99.90;;;;;;4908447;29;20075;-82
2022/09/09 07:31:22;;;;;;;18.35;2.88;;;19.30;99.90;;;;;;4904938;29;20040;-83
2022/09/09 07:33:48;;;;;;;15.65;2.00;;;19.40;99.90;;;;;;4905208;29;20039;-83
2022/09/09 07:36:25;;;;;;;19.27;2.90;;;19.40;99.90;;;;;;4898644;29;20544;-82
2022/09/09 07:38:53;;;;;;;21.67;2.88;;;19.50;99.90;;;;;;4899766;29;20096;-83
2022/09/09 07:41:23;;;;;;;20.13;2.88;;;19.60;99.90;;;;;;4904783;29;20028;-83
2022/09/09 07:43:50;;;;;;;20.50;2.72;;;19.60;99.90;;;;;;4898895;29;20103;-83
2022/09/09 07:46:19;;;;;;;18.83;3.10;;;19.80;99.90;;;;;;4895800;29;20044;-82
2022/09/09 07:48:52;;;;;;;15.68;2.10;;;19.90;99.90;;;;;;4898365;29;20025;-83
2022/09/09 07:51:24;;;;;;;12.23;2.15;;;20.00;99.90;;;;;;4896475;29;20028;-83
2022/09/09 07:53:59;;;;;;;8.95;1.40;;;20.10;99.90;;;;;;4894620;29;20047;-83
2022/09/09 07:56:26;;;;;;;14.77;2.13;;;20.00;99.90;;;;;;4899659;29;20029;-80
2022/09/09 07:58:54;;;;;;;11.68;1.90;;;20.00;99.90;;;;;;4900352;29;20079;-83
2022/09/09 08:01:21;;;;;;;12.43;2.10;;;20.10;99.90;;;;;;4898769;29;20038;-83
2022/09/09 08:03:59;;;;;;;10.10;1.60;;;20.20;99.90;;;;;;4891756;29;20035;-83
2022/09/09 08:06:26;;;;;;;11.05;2.10;;;20.50;99.90;;;;;;4900244;29;20486;-83
2022/09/09 08:08:52;;;;;;;17.55;2.65;;;20.50;99.90;;;;;;4899352;29;20027;-83
2022/09/09 08:11:18;;;;;;;11.80;2.30;;;20.40;99.90;;;;;;4896501;29;20498;-83
2022/09/09 08:13:45;;;;;;;15.10;2.60;;;20.40;99.90;;;;;;4896589;29;20031;-82
2022/09/09 08:16:17;;;;;;;14.40;2.65;;;20.30;99.90;;;;;;4898590;29;20060;-83
2022/09/09 08:18:44;;;;;;;13.77;2.58;;;20.20;99.90;;;;;;4906819;29;20028;-82
2022/09/09 08:21:17;;;;;;;10.45;2.17;;;20.10;99.90;;;;;;4905677;29;20505;-82
2022/09/09 08:23:45;;;;;;;16.23;2.35;;;20.20;99.90;;;;;;4901708;29;20024;-83
2022/09/09 08:26:14;;;;;;;19.27;2.70;;;20.30;99.90;;;;;;4905766;29;20513;-83
2022/09/09 08:28:41;;;;;;;23.85;3.17;;;20.40;99.90;;;;;;4906157;29;20045;-83
2022/09/09 08:31:10;;;;;;;17.00;2.70;;;20.30;99.90;;;;;;4903656;29;20087;-83
2022/09/09 08:33:37;;;;;;;14.88;2.53;;;20.20;99.90;;;;;;4909661;29;20032;-81
2022/09/09 08:36:04;;;;;;;13.93;2.55;;;20.00;99.90;;;;;;4898000;29;20089;-82
2022/09/09 08:38:29;;;;;;;14.60;2.58;;;20.10;99.90;;;;;;4904162;29;20095;-84
2022/09/09 08:41:07;;;;;;;15.98;2.58;;;20.00;99.90;;;;;;4906706;29;20045;-83
2022/09/09 08:43:33;;;;;;;14.60;3.05;;;19.90;99.90;;;;;;4901931;29;20032;-83
2022/09/09 08:46:43;;;;;;;16.05;2.53;;;20.10;99.90;;;;;;4899673;29;20052;-83
2022/09/09 08:49:30;;;;;;;17.80;2.53;;;20.50;99.90;;;;;;4894258;29;20113;-82
2022/09/09 08:51:57;;;;;;;11.15;2.50;;;20.60;99.90;;;;;;4896192;29;20028;-84
2022/09/09 08:54:23;;;;;;;15.40;2.80;;;20.70;99.90;;;;;;4900228;29;20028;-83
2022/09/09 08:56:49;;;;;;;17.95;2.60;;;20.80;99.90;;;;;;4903939;29;20080;-83
2022/09/09 08:59:19;;;;;;;9.48;1.58;;;20.70;99.90;;;;;;4910098;29;20028;-84
2022/09/09 09:01:58;;;;;;;6.35;1.35;;;20.40;99.90;;;;;;4898723;29;20032;-83
2022/09/09 09:04:43;;;;;;;8.57;1.83;;;20.20;99.90;;;;;;4899622;29;20032;-84
2022/09/09 09:07:34;;;;;;;18.75;2.22;;;20.20;99.90;;;;;;4901327;29;20025;-84
2022/09/09 09:10:21;;;;;;;17.67;2.65;;;20.10;99.90;;;;;;4901832;29;20032;-84
2022/09/09 09:12:48;;;;;;;14.13;1.95;;;20.30;99.90;;;;;;4904945;29;20146;-83
2022/09/09 09:15:20;;;;;;;11.95;2.17;;;20.30;99.90;;;;;;4902883;29;20052;-84
2022/09/09 09:17:48;;;;;;;13.20;2.13;;;20.30;99.90;;;;;;4896919;29;20020;-83
2022/09/09 09:20:16;;;;;;;15.25;2.95;;;20.30;99.90;;;;;;4900262;29;20064;-83
2022/09/09 09:22:50;;;;;;;13.32;2.88;;;20.20;99.90;;;;;;4902645;29;20017;-83
2022/09/09 09:25:21;;;;;;;18.25;3.08;;;20.20;99.90;;;;;;4895677;29;20079;-83
2022/09/09 09:28:00;;;;;;;13.65;1.92;;;20.40;99.90;;;;;;4893373;29;20402;-83
2022/09/09 09:30:31;;;;;;;17.58;2.60;;;20.70;99.90;;;;;;4890406;29;20056;-83
2022/09/09 09:33:03;;;;;;;13.82;2.40;;;20.80;99.90;;;;;;4896239;29;20267;-84
2022/09/09 09:35:28;;;;;;;13.73;2.13;;;20.70;99.90;;;;;;4892292;29;20276;-83
2022/09/09 09:37:54;;;;;;;13.98;2.47;;;20.80;99.90;;;;;;4894407;29;20029;-83
2022/09/09 09:40:22;;;;;;;11.77;2.03;;;20.80;99.90;;;;;;4897490;29;20274;-85
2022/09/09 09:42:52;;;;;;;18.23;2.20;;;20.90;99.90;;;;;;4896225;29;20519;-83
2022/09/09 09:45:33;;;;;;;13.13;2.47;;;21.20;99.90;;;;;;4895472;29;20040;-83
2022/09/09 09:48:05;;;;;;;9.88;1.85;;;21.40;99.90;;;;;;4890596;29;20037;-78
2022/09/09 09:50:32;;;;;;;13.82;2.30;;;21.40;99.90;;;;;;4892544;29;20107;-82
2022/09/09 09:53:02;;;;;;;10.77;1.77;;;21.70;99.90;;;;;;4893217;29;20073;-86
2022/09/09 09:55:31;;;;;;;12.38;2.00;;;22.20;99.90;;;;;;4897149;29;20505;-85
2022/09/09 09:58:15;;;;;;;13.02;2.30;;;22.60;99.90;;;;;;4898641;29;20481;-85
2022/09/09 10:00:52;;;;;;;9.15;1.90;;;22.70;99.90;;;;;;4898654;29;20016;-83
2022/09/09 10:03:26;;;;;;;14.68;2.80;;;22.10;99.90;;;;;;4896683;29;20028;-84
2022/09/09 10:05:52;;;;;;;22.40;3.58;;;20.90;99.90;;;;;;4896492;29;20449;-86
2022/09/09 10:08:18;;;;;;;20.13;3.13;;;20.10;99.90;;;;;;4895048;29;20025;-87
2022/09/09 10:10:56;;;;;;;24.67;3.25;;;19.50;99.90;;;;;;4889825;29;20024;-87
2022/09/09 10:13:33;;;;;;;19.13;2.83;;;19.20;99.90;;;;;;4883914;29;20043;-88
2022/09/09 10:16:08;;;;;;;19.27;2.63;;;19.20;99.90;;;;;;4891838;29;21243;-89
2022/09/09 10:18:44;;;;;;;15.95;2.97;;;19.30;99.90;;;;;;4881801;29;20044;-90
2022/09/09 10:21:20;;;;;;;17.52;3.10;;;19.40;99.90;;;;;;4888771;29;20021;-86
2022/09/09 10:23:52;;;;;;;15.18;2.72;;;19.50;99.90;;;;;;4897959;29;20115;-89
2022/09/09 10:26:46;;;;;;;12.95;2.17;;;19.70;99.90;;;;;;4894901;29;20067;-86
2022/09/09 10:29:47;;;;;;;8.25;1.23;;;20.00;99.90;;;;;;4896266;29;20063;-87
2022/09/09 10:32:47;;;;;;;10.88;1.67;;;20.30;99.90;;;;;;4892995;29;20028;-87
2022/09/09 10:35:34;;;;;;;12.13;1.65;;;20.60;99.90;;;;;;4887954;29;20088;-85
2022/09/09 10:38:03;;;;;;;9.65;1.67;;;20.60;99.90;;;;;;4893990;29;20028;-85
2022/09/09 10:40:52;;;;;;;7.30;1.42;;;20.50;99.90;;;;;;4892046;29;20047;-86
2022/09/09 10:43:37;;;;;;;12.20;1.80;;;20.50;99.90;;;;;;4894149;29;20067;-83
2022/09/09 10:46:38;;;;;;;6.05;1.17;;;20.60;99.90;;;;;;4892487;29;20367;-85
2022/09/09 10:49:23;;;;;;;11.88;1.80;;;20.70;99.90;;;;;;4893498;29;20542;-84
2022/09/09 10:52:13;;;;;;;7.80;1.48;;;20.80;99.90;;;;;;4884334;29;20028;-85
2022/09/09 10:54:51;;;;;;;7.85;1.50;;;21.10;99.90;;;;;;4896790;29;20028;-85
2022/09/09 10:57:22;;;;;;;10.10;2.25;;;21.40;99.90;;;;;;4898171;29;20039;-86
2022/09/09 10:59:53;;;;;;;9.90;2.20;;;21.50;99.90;;;;;;4896290;29;20222;-85
2022/09/09 11:02:27;;;;;;;10.73;1.88;;;21.60;99.90;;;;;;4887020;29;20284;-84
2022/09/09 11:05:04;;;;;;;14.48;2.78;;;21.70;99.90;;;;;;4887200;29;20515;-84
2022/09/09 11:07:53;;;;;;;12.27;2.05;;;21.60;99.90;;;;;;4896274;29;20039;-86
2022/09/09 11:10:39;;;;;;;12.00;2.22;;;21.50;99.90;;;;;;4898289;29;20040;-82
2022/09/09 11:13:21;;;;;;;20.38;2.50;;;21.60;99.90;;;;;;4890475;29;20029;-84
2022/09/09 11:15:53;;;;;;;12.90;2.50;;;21.80;99.90;;;;;;4895598;29;20028;-83
2022/09/09 11:18:23;;;;;;;17.15;2.45;;;21.90;99.90;;;;;;4893702;29;20032;-85
2022/09/09 11:20:55;;;;;;;10.15;1.58;;;22.00;99.90;;;;;;4895321;29;20082;-85
2022/09/09 11:23:37;;;;;;;11.45;2.03;;;21.80;99.90;;;;;;4892063;29;20028;-85
2022/09/09 11:26:05;;;;;;;12.00;1.95;;;22.00;99.90;;;;;;4896130;29;20075;-83
2022/09/09 11:28:40;;;;;;;14.63;2.35;;;21.90;99.90;;;;;;4895247;29;20048;-86
2022/09/09 11:31:31;;;;;;;23.15;3.65;;;21.80;99.90;;;;;;4899533;29;20084;-83
2022/09/09 11:34:22;;;;;;;19.30;2.25;;;21.60;99.90;;;;;;4896008;29;20012;-83
2022/09/09 11:37:12;;;;;;;13.27;2.38;;;21.70;99.90;;;;;;4890036;29;20028;-83
2022/09/09 11:39:51;;;;;;;13.82;1.85;;;21.90;99.90;;;;;;4897656;29;20095;-82
2022/09/09 11:42:23;;;;;;;10.68;2.00;;;22.10;99.90;;;;;;4888636;29;20053;-83
2022/09/09 11:44:49;;;;;;;13.18;1.77;;;22.10;99.90;;;;;;4889033;29;20255;-83
2022/09/09 11:47:28;;;;;;;18.08;2.80;;;22.20;99.90;;;;;;4903003;29;20048;-83
2022/09/09 11:49:55;;;;;;;11.52;2.70;;;22.30;99.90;;;;;;4900566;29;20029;-85
2022/09/09 11:52:36;;;;;;;11.65;2.40;;;22.40;99.90;;;;;;4900740;29;20050;-84
2022/09/09 11:55:27;;;;;;;12.70;1.85;;;22.10;99.90;;;;;;4896757;29;20040;-86
2022/09/09 11:58:04;;;;;;;10.20;2.15;;;21.80;99.90;;;;;;4895525;29;20016;-83
2022/09/09 12:00:41;;;;;;;10.07;1.92;;;21.80;99.90;;;;;;4899893;29;20083;-86
2022/09/09 12:03:32;;;;;;;11.10;1.98;;;21.90;99.90;;;;;;4907671;29;20386;-86
2022/09/09 12:06:00;;;;;;;11.70;2.25;;;22.30;99.90;;;;;;4894348;29;20051;-84
2022/09/09 12:08:29;;;;;;;14.77;2.63;;;22.60;99.90;;;;;;4893935;29;20426;-84
2022/09/09 12:11:03;;;;;;;15.10;2.22;;;22.60;99.90;;;;;;4897824;29;20413;-85
2022/09/09 12:13:31;;;;;;;8.88;1.85;;;22.60;99.90;;;;;;4905016;29;20099;-85
2022/09/09 12:15:58;;;;;;;10.88;1.75;;;22.60;99.90;;;;;;4902261;29;20059;-80
2022/09/09 12:18:45;;;;;;;14.10;2.05;;;22.60;99.90;;;;;;4904693;29;20092;-80
2022/09/09 12:21:38;;;;;;;9.50;1.88;;;22.60;99.90;;;;;;4903468;29;20107;-85
2022/09/09 12:24:16;;;;;;;13.20;1.95;;;22.70;99.90;;;;;;4903287;29;20047;-82
2022/09/09 12:26:53;;;;;;;12.40;2.05;;;22.50;99.90;;;;;;4901609;29;20028;-82
2022/09/09 12:29:19;;;;;;;9.45;2.42;;;22.50;99.90;;;;;;4895610;29;20080;-83
2022/09/09 12:31:44;;;;;;;12.88;2.10;;;22.60;99.90;;;;;;4898186;29;20055;-84
2022/09/09 12:34:22;;;;;;;11.18;2.00;;;22.90;99.90;;;;;;4902018;29;20032;-84
2022/09/09 12:36:58;;;;;;;10.45;2.13;;;23.20;99.90;;;;;;4890825;29;20025;-85
2022/09/09 12:39:38;;;;;;;15.18;2.13;;;23.10;99.90;;;;;;4889492;29;20036;-84
2022/09/09 12:42:04;;;;;;;12.75;2.35;;;22.90;99.90;;;;;;4891530;29;20032;-84
2022/09/09 12:44:32;;;;;;;9.70;1.60;;;23.00;99.90;;;;;;4891678;29;22617;-84
2022/09/09 12:47:02;;;;;;;11.10;1.50;;;22.80;99.90;;;;;;4894937;29;20051;-83
2022/09/09 12:49:34;;;;;;;12.45;2.25;;;22.60;99.90;;;;;;4898827;29;20036;-83
2022/09/09 12:52:22;;;;;;;10.07;1.73;;;22.50;99.90;;;;;;4897038;29;20035;-84
2022/09/09 12:54:51;;;;;;;8.95;2.13;;;22.60;99.90;;;;;;4895260;29;20020;-84
2022/09/09 12:57:17;;;;;;;7.57;1.70;;;22.70;99.90;;;;;;4896494;29;20024;-84
2022/09/09 12:59:48;;;;;;;11.32;1.73;;;22.60;99.90;;;;;;4897380;29;20044;-83
2022/09/09 13:02:27;;;;;;;14.98;2.22;;;22.70;99.90;;;;;;4891374;29;20525;-83